Time;durP1;ratioP1;P1;durP2;ratioP2;P2;SDS_P1;SDS_P2;PMS_P1;PMS_P2;Temp;Humidity;BMP_temperature;BMP_pressure;BME280_temperature;BME280_humidity;BME280_pressure;Samples;Min_cycle;Max_cycle;Signal;HPM_P1;HPM_P2
2023/09/26 00:00:20;;;;;;;14.60;6.22;;;;;;;12.44;100.00;102088.97;5029678;28;20052;-71
2023/09/26 00:02:46;;;;;;;14.52;6.00;;;;;;;12.48;100.00;102089.69;5030712;28;20049;-72
2023/09/26 00:05:12;;;;;;;12.25;6.53;;;;;;;12.50;100.00;102083.16;5034034;28;20541;-72
2023/09/26 00:07:37;;;;;;;13.38;6.75;;;;;;;12.48;100.00;102079.63;5036468;28;20124;-72
2023/09/26 00:10:05;;;;;;;10.23;7.15;;;;;;;12.46;100.00;102080.72;5029998;28;20456;-71
2023/09/26 00:12:30;;;;;;;9.77;6.00;;;;;;;12.43;100.00;102081.75;5029925;28;20038;-72
2023/09/26 00:14:55;;;;;;;7.20;5.50;;;;;;;12.42;100.00;102088.19;5028544;28;20036;-71
2023/09/26 00:17:21;;;;;;;8.10;5.13;;;;;;;12.40;100.00;102086.53;5029988;28;20045;-72
2023/09/26 00:19:46;;;;;;;8.13;5.70;;;;;;;12.38;100.00;102085.75;5028827;28;20033;-71
2023/09/26 00:22:12;;;;;;;7.65;5.85;;;;;;;12.36;100.00;102079.53;5038837;28;20040;-72
2023/09/26 00:24:37;;;;;;;5.75;4.90;;;;;;;12.33;100.00;102088.75;5028956;28;20041;-72
2023/09/26 00:27:03;;;;;;;9.88;5.30;;;;;;;12.30;100.00;102083.47;5029870;28;20049;-71
2023/09/26 00:29:30;;;;;;;10.65;5.50;;;;;;;12.28;100.00;102081.81;5029442;28;20108;-72
2023/09/26 00:31:56;;;;;;;8.40;6.28;;;;;;;12.24;100.00;102089.31;5030198;28;20044;-72
2023/09/26 00:34:21;;;;;;;11.35;5.60;;;;;;;12.20;100.00;102083.13;5030262;28;20029;-71
2023/09/26 00:36:47;;;;;;;7.53;5.35;;;;;;;12.16;100.00;102081.56;5030071;28;20029;-71
2023/09/26 00:39:12;;;;;;;8.80;5.95;;;;;;;12.13;100.00;102080.88;5029442;28;20033;-71
2023/09/26 00:41:38;;;;;;;7.50;5.55;;;;;;;12.10;100.00;102081.94;5041864;28;20072;-71
2023/09/26 00:44:04;;;;;;;9.13;5.80;;;;;;;12.07;100.00;102081.22;5034017;28;20088;-72
2023/09/26 00:46:30;;;;;;;8.77;5.85;;;;;;;12.00;100.00;102080.72;5030633;28;20038;-72
2023/09/26 00:48:56;;;;;;;10.20;5.43;;;;;;;11.95;100.00;102088.28;5027683;28;20036;-72
2023/09/26 00:51:21;;;;;;;6.25;4.82;;;;;;;11.93;100.00;102088.38;5032017;28;20033;-71
2023/09/26 00:53:47;;;;;;;5.53;4.85;;;;;;;11.91;100.00;102078.53;5048960;28;20076;-71
2023/09/26 00:56:12;;;;;;;6.07;5.10;;;;;;;11.88;100.00;102084.16;5048082;28;20377;-71
2023/09/26 00:58:40;;;;;;;6.38;5.18;;;;;;;11.86;100.00;102086.97;5037400;28;20041;-72
2023/09/26 01:01:06;;;;;;;6.50;5.00;;;;;;;11.86;100.00;102080.66;5029733;28;20041;-71
2023/09/26 01:03:34;;;;;;;6.20;5.07;;;;;;;11.86;100.00;102077.94;5028003;28;20053;-72
2023/09/26 01:06:01;;;;;;;6.35;4.88;;;;;;;11.83;100.00;102070.78;5038339;28;20037;-71
2023/09/26 01:08:29;;;;;;;6.25;4.88;;;;;;;11.81;100.00;102067.25;5029698;28;20050;-71
2023/09/26 01:10:58;;;;;;;7.55;4.65;;;;;;;11.80;100.00;102067.31;5027316;28;20384;-71
2023/09/26 01:13:23;;;;;;;8.52;5.53;;;;;;;11.78;100.00;102061.09;5029418;28;20045;-72
2023/09/26 01:15:48;;;;;;;11.80;5.03;;;;;;;11.78;100.00;102061.97;5029469;28;20025;-72
2023/09/26 01:18:16;;;;;;;6.25;5.20;;;;;;;11.79;100.00;102066.44;5011606;28;20037;-72
2023/09/26 01:20:45;;;;;;;8.15;5.05;;;;;;;11.79;100.00;102061.00;5028033;28;20531;-71
2023/09/26 01:23:15;;;;;;;7.45;5.22;;;;;;;11.78;100.00;102063.81;5027829;28;20045;-71
2023/09/26 01:25:41;;;;;;;6.80;4.97;;;;;;;11.75;100.00;102064.88;5028391;28;20577;-71
2023/09/26 01:28:08;;;;;;;7.28;5.00;;;;;;;11.75;100.00;102076.66;5029152;28;20489;-72
2023/09/26 01:30:35;;;;;;;6.97;4.57;;;;;;;11.77;100.00;102081.16;5029380;28;20025;-72
2023/09/26 01:33:03;;;;;;;7.13;4.85;;;;;;;11.73;100.00;102078.59;5028206;28;20110;-71
2023/09/26 01:35:28;;;;;;;12.90;5.82;;;;;;;11.70;100.00;102077.88;5029780;28;20033;-72
2023/09/26 01:37:54;;;;;;;8.85;5.43;;;;;;;11.68;100.00;102071.66;5027144;28;20041;-71
2023/09/26 01:40:19;;;;;;;8.50;5.00;;;;;;;11.65;100.00;102072.69;5028500;28;20029;-71
2023/09/26 01:42:45;;;;;;;12.20;5.55;;;;;;;11.66;100.00;102070.88;5026761;28;20037;-71
2023/09/26 01:45:10;;;;;;;8.05;5.68;;;;;;;11.67;100.00;102067.16;5027553;28;20505;-72
2023/09/26 01:47:46;;;;;;;9.68;6.05;;;;;;;11.66;100.00;102066.28;5028957;28;20036;-71
2023/09/26 01:50:12;;;;;;;11.93;5.80;;;;;;;11.65;100.00;102063.63;5028511;28;20524;-71
2023/09/26 01:52:38;;;;;;;9.50;6.88;;;;;;;11.62;100.00;102058.38;5027845;28;20033;-71
2023/09/26 01:55:10;;;;;;;12.45;7.05;;;;;;;11.55;100.00;102059.69;5028060;28;20040;-72
2023/09/26 01:57:35;;;;;;;9.23;6.47;;;;;;;11.55;100.00;102057.84;5026889;28;20045;-72
2023/09/26 02:00:12;;;;;;;10.18;5.35;;;;;;;11.55;100.00;102065.13;5027706;28;20029;-71
2023/09/26 02:02:48;;;;;;;8.05;5.40;;;;;;;11.54;100.00;102067.00;5028786;28;20048;-71
2023/09/26 02:05:17;;;;;;;6.93;5.65;;;;;;;11.50;100.00;102058.09;5026695;28;20434;-71
2023/09/26 02:07:44;;;;;;;7.00;5.65;;;;;;;11.48;100.00;102056.44;5027864;28;20038;-71
2023/09/26 02:10:09;;;;;;;6.72;5.72;;;;;;;11.50;100.00;102071.72;5035945;28;20120;-71
2023/09/26 02:12:37;;;;;;;7.93;5.93;;;;;;;11.48;100.00;102057.31;5043215;28;20450;-71
2023/09/26 02:15:05;;;;;;;7.15;5.85;;;;;;;11.50;100.00;102059.94;5046708;28;20033;-72
2023/09/26 02:17:35;;;;;;;6.45;5.40;;;;;;;11.48;100.00;102053.72;5045787;28;20033;-71
2023/09/26 02:20:10;;;;;;;7.40;5.65;;;;;;;11.49;100.00;102053.63;5043610;28;20469;-71
2023/09/26 02:22:36;;;;;;;9.55;6.07;;;;;;;11.48;100.00;102043.69;5027379;28;20056;-71
2023/09/26 02:25:01;;;;;;;8.88;5.95;;;;;;;11.49;100.00;102053.63;5028107;28;20041;-71
2023/09/26 02:27:26;;;;;;;7.97;5.30;;;;;;;11.48;100.00;102040.97;5044923;28;20044;-71
2023/09/26 02:29:53;;;;;;;10.48;5.82;;;;;;;11.48;100.00;102051.88;5026879;28;20037;-71
2023/09/26 02:32:18;;;;;;;7.18;6.03;;;;;;;11.45;100.00;102041.13;5031616;28;20492;-72
2023/09/26 02:34:44;;;;;;;8.10;6.57;;;;;;;11.43;100.00;102051.25;5046374;28;20028;-72
2023/09/26 02:37:10;;;;;;;7.55;6.13;;;;;;;11.44;100.00;102050.28;5037669;28;20334;-71
2023/09/26 02:39:36;;;;;;;10.13;6.88;;;;;;;11.43;100.00;102047.66;5026324;28;20140;-71
2023/09/26 02:42:01;;;;;;;9.63;6.60;;;;;;;11.40;100.00;102047.81;5026416;28;20041;-72
2023/09/26 02:44:27;;;;;;;8.05;6.13;;;;;;;11.39;100.00;102041.50;5028385;28;20037;-72
2023/09/26 02:46:52;;;;;;;10.45;6.40;;;;;;;11.39;100.00;102024.25;5035090;28;20045;-71
2023/09/26 02:49:17;;;;;;;11.00;6.65;;;;;;;11.36;100.00;102027.16;5046306;28;20091;-72
2023/09/26 02:51:43;;;;;;;10.68;6.65;;;;;;;11.32;100.00;102026.44;5041638;28;20033;-72
2023/09/26 02:54:08;;;;;;;8.52;6.20;;;;;;;11.31;100.00;102032.00;5025346;28;20025;-72
2023/09/26 02:56:34;;;;;;;7.95;6.68;;;;;;;11.30;100.00;102016.63;5027169;28;20039;-72
2023/09/26 02:58:59;;;;;;;9.25;7.13;;;;;;;11.29;100.00;102015.75;5028043;28;20037;-72
2023/09/26 03:01:25;;;;;;;7.57;6.00;;;;;;;11.27;100.00;102019.50;5026404;28;20021;-72
2023/09/26 03:03:52;;;;;;;10.20;6.88;;;;;;;11.23;100.00;102014.22;5025779;28;20081;-72
2023/09/26 03:06:17;;;;;;;11.00;6.78;;;;;;;11.22;100.00;102009.75;5025562;28;20033;-72
2023/09/26 03:08:43;;;;;;;7.53;6.13;;;;;;;11.23;100.00;102010.63;5037486;28;20427;-72
2023/09/26 03:11:08;;;;;;;10.25;6.63;;;;;;;11.23;100.00;102010.63;5027028;28;20064;-72
2023/09/26 03:13:34;;;;;;;8.38;5.97;;;;;;;11.22;100.00;102008.88;5030556;28;20443;-71
2023/09/26 03:16:00;;;;;;;8.98;6.07;;;;;;;11.20;100.00;102011.69;5010363;28;20143;-71
2023/09/26 03:18:28;;;;;;;10.20;6.30;;;;;;;11.19;100.00;102012.66;5026074;28;20041;-72
2023/09/26 03:20:54;;;;;;;10.38;6.60;;;;;;;11.19;100.00;102006.31;5027645;28;20449;-71
2023/09/26 03:23:24;;;;;;;9.35;6.03;;;;;;;11.18;100.00;102005.44;5026834;28;20099;-71
2023/09/26 03:25:49;;;;;;;9.48;7.32;;;;;;;11.17;100.00;102009.13;5037667;28;20456;-71
2023/09/26 03:28:14;;;;;;;9.45;7.20;;;;;;;11.16;100.00;102003.78;5039055;28;20072;-72
2023/09/26 03:30:41;;;;;;;11.43;6.75;;;;;;;11.16;100.00;102003.78;5026480;28;20036;-71
2023/09/26 03:33:06;;;;;;;7.90;6.63;;;;;;;11.14;100.00;102006.56;5026198;28;20422;-71
2023/09/26 03:35:32;;;;;;;11.63;7.88;;;;;;;11.14;100.00;101997.50;5027190;28;20489;-71
2023/09/26 03:37:58;;;;;;;14.57;8.30;;;;;;;11.10;100.00;102005.00;5040925;28;20037;-71
2023/09/26 03:40:23;;;;;;;8.65;6.43;;;;;;;11.09;100.00;102014.13;5045467;28;20082;-71
2023/09/26 03:42:48;;;;;;;11.98;7.63;;;;;;;11.09;100.00;102010.50;5042076;28;20041;-72
2023/09/26 03:45:14;;;;;;;10.77;7.30;;;;;;;11.06;100.00;102008.88;5026038;28;20500;-72
2023/09/26 03:47:39;;;;;;;14.43;7.55;;;;;;;11.03;100.00;102009.03;5027264;28;20501;-72
2023/09/26 03:50:05;;;;;;;11.82;8.18;;;;;;;11.01;100.00;102005.53;5027279;28;20120;-71
2023/09/26 03:52:30;;;;;;;9.95;8.00;;;;;;;10.98;100.00;102001.09;5014448;28;20527;-71
2023/09/26 03:54:56;;;;;;;9.45;6.93;;;;;;;10.99;100.00;102001.97;5027006;28;20030;-72
2023/09/26 03:57:21;;;;;;;10.32;7.50;;;;;;;10.96;100.00;102000.31;5008547;28;20045;-72
2023/09/26 03:59:50;;;;;;;15.68;7.47;;;;;;;10.94;100.00;101999.50;5025936;28;20054;-71
2023/09/26 04:02:16;;;;;;;11.10;7.30;;;;;;;10.92;100.00;101992.41;5026806;28;20382;-72
2023/09/26 04:04:41;;;;;;;16.88;6.97;;;;;;;10.92;100.00;101993.28;5040362;28;20037;-71
2023/09/26 04:07:07;;;;;;;9.13;6.18;;;;;;;10.90;100.00;101997.91;5036293;28;20037;-71
2023/09/26 04:09:35;;;;;;;11.02;7.18;;;;;;;10.88;100.00;102004.44;5027061;28;20121;-72
2023/09/26 04:12:03;;;;;;;12.95;8.75;;;;;;;10.83;100.00;102001.97;5025501;28;20103;-71
2023/09/26 04:14:29;;;;;;;12.02;8.43;;;;;;;10.80;100.00;101999.41;5027447;28;20496;-71
2023/09/26 04:16:54;;;;;;;11.43;7.57;;;;;;;10.77;100.00;101993.22;5026855;28;20045;-71
2023/09/26 04:19:19;;;;;;;15.10;8.32;;;;;;;10.72;100.00;101988.94;5008989;28;20069;-72
2023/09/26 04:21:45;;;;;;;10.18;7.65;;;;;;;10.72;100.00;101988.94;5030356;28;20028;-71
2023/09/26 04:24:10;;;;;;;9.93;8.23;;;;;;;10.70;100.00;101984.53;5048148;28;20508;-71
2023/09/26 04:26:35;;;;;;;12.85;8.07;;;;;;;10.65;100.00;101975.75;5049977;28;20021;-72
2023/09/26 04:29:01;;;;;;;12.68;8.38;;;;;;;10.66;100.00;101974.78;5036301;28;20049;-72
2023/09/26 04:31:27;;;;;;;15.73;10.80;;;;;;;10.66;100.00;101972.94;5030418;28;20029;-71
2023/09/26 04:33:53;;;;;;;14.27;9.77;;;;;;;10.65;100.00;101973.03;5030089;28;20037;-71
2023/09/26 04:36:18;;;;;;;16.38;9.52;;;;;;;10.62;100.00;101967.75;5031271;28;20095;-72
2023/09/26 04:38:45;;;;;;;11.38;8.43;;;;;;;10.64;100.00;101966.72;5049564;28;20098;-71
2023/09/26 04:41:10;;;;;;;12.50;8.88;;;;;;;10.63;100.00;101961.34;5050070;28;20036;-72
2023/09/26 04:43:37;;;;;;;12.77;9.40;;;;;;;10.65;100.00;101965.75;5040223;28;20080;-72
2023/09/26 04:46:08;;;;;;;11.70;8.70;;;;;;;10.65;100.00;101964.88;5029426;28;20052;-72
2023/09/26 04:48:34;;;;;;;11.20;8.03;;;;;;;10.66;100.00;101961.19;5029996;28;20080;-71
2023/09/26 04:50:59;;;;;;;14.20;8.75;;;;;;;10.68;100.00;101965.59;5029242;28;20067;-72
2023/09/26 04:53:24;;;;;;;10.30;8.05;;;;;;;10.66;100.00;101953.88;5029321;28;20440;-72
2023/09/26 04:55:50;;;;;;;9.90;7.32;;;;;;;10.69;100.00;101950.13;5028706;28;20311;-72
2023/09/26 04:58:15;;;;;;;10.85;7.80;;;;;;;10.68;100.00;101953.81;5035804;28;20037;-72
2023/09/26 05:00:40;;;;;;;12.77;7.60;;;;;;;10.72;100.00;101958.09;5030145;28;20409;-71
2023/09/26 05:03:06;;;;;;;9.77;7.85;;;;;;;10.72;100.00;101960.81;5049523;28;20509;-72
2023/09/26 05:05:31;;;;;;;10.15;7.60;;;;;;;10.72;100.00;101958.09;5036011;28;20394;-71
2023/09/26 05:07:56;;;;;;;9.18;7.13;;;;;;;10.73;100.00;101963.50;5028940;28;20465;-71
2023/09/26 05:10:22;;;;;;;10.00;7.82;;;;;;;10.72;100.00;101963.53;5029317;28;20503;-71
2023/09/26 05:12:47;;;;;;;11.02;7.72;;;;;;;10.71;100.00;101959.06;5028770;28;20106;-71
2023/09/26 05:15:15;;;;;;;13.73;8.10;;;;;;;10.71;100.00;101962.66;5029756;28;20071;-71
2023/09/26 05:17:49;;;;;;;11.73;7.90;;;;;;;10.67;100.00;101955.63;5029381;28;20545;-71
2023/09/26 05:20:15;;;;;;;13.30;7.90;;;;;;;10.66;100.00;101956.59;5029504;28;20041;-71
2023/09/26 05:22:43;;;;;;;13.82;9.00;;;;;;;10.62;100.00;101949.56;5028667;28;20531;-72
2023/09/26 05:25:09;;;;;;;12.45;8.88;;;;;;;10.59;100.00;101962.50;5027979;28;20091;-72
2023/09/26 05:27:37;;;;;;;9.63;7.85;;;;;;;10.56;100.00;101958.09;5028484;28;20044;-71
2023/09/26 05:30:03;;;;;;;12.07;8.43;;;;;;;10.57;100.00;101953.50;5012144;28;20033;-72
2023/09/26 05:32:29;;;;;;;14.70;8.75;;;;;;;10.59;100.00;101959.78;5029549;28;20051;-71
2023/09/26 05:34:55;;;;;;;13.63;10.10;;;;;;;10.60;100.00;101962.41;5029032;28;20056;-72
2023/09/26 05:37:20;;;;;;;12.15;9.55;;;;;;;10.61;100.00;101964.16;5028594;28;20477;-72
2023/09/26 05:39:46;;;;;;;10.05;8.98;;;;;;;10.63;100.00;101964.97;5030031;28;20052;-72
2023/09/26 05:42:12;;;;;;;11.57;8.23;;;;;;;10.61;100.00;101955.97;5039081;28;20048;-72
2023/09/26 05:44:37;;;;;;;11.52;8.80;;;;;;;10.64;100.00;101965.84;5028444;28;20469;-71
2023/09/26 05:47:03;;;;;;;10.32;7.63;;;;;;;10.63;100.00;101973.13;5028776;28;20407;-71
2023/09/26 05:49:29;;;;;;;10.82;7.82;;;;;;;10.64;100.00;101971.28;5011797;28;20041;-72
2023/09/26 05:51:54;;;;;;;12.63;8.85;;;;;;;10.66;100.00;101980.22;5027265;28;20445;-71
2023/09/26 05:54:20;;;;;;;13.60;8.95;;;;;;;10.69;100.00;101980.94;5010795;28;20037;-71
2023/09/26 05:56:45;;;;;;;10.50;8.30;;;;;;;10.73;100.00;101982.53;5027407;28;20061;-72
2023/09/26 05:59:11;;;;;;;13.07;8.77;;;;;;;10.77;100.00;101983.25;5026805;28;20072;-71
2023/09/26 06:01:36;;;;;;;10.23;8.55;;;;;;;10.80;100.00;101980.34;5029911;28;20037;-72
2023/09/26 06:04:01;;;;;;;14.45;8.63;;;;;;;10.84;100.00;101975.63;5028532;28;20061;-72
2023/09/26 06:06:27;;;;;;;11.73;9.30;;;;;;;10.87;100.00;101967.28;5033342;28;20041;-71
2023/09/26 06:08:52;;;;;;;12.57;8.98;;;;;;;10.93;100.00;101977.81;5028069;28;20044;-72
2023/09/26 06:11:17;;;;;;;13.02;9.60;;;;;;;10.95;100.00;101963.16;5010217;28;20449;-72
2023/09/26 06:13:44;;;;;;;14.13;10.27;;;;;;;11.02;100.00;101977.31;5009610;28;20029;-72
2023/09/26 06:16:10;;;;;;;16.63;10.25;;;;;;;11.09;100.00;101975.97;5029811;28;20072;-72
2023/09/26 06:18:35;;;;;;;14.30;10.38;;;;;;;11.18;100.00;101978.19;5028031;28;20037;-72
2023/09/26 06:21:08;;;;;;;11.85;9.70;;;;;;;11.24;100.00;101964.25;5033007;28;20037;-72
2023/09/26 06:23:33;;;;;;;13.38;9.85;;;;;;;11.31;100.00;101953.84;5028663;28;20540;-73
2023/09/26 06:25:59;;;;;;;15.57;10.88;;;;;;;11.39;100.00;101954.31;5027079;28;20036;-72
2023/09/26 06:28:25;;;;;;;16.20;9.50;;;;;;;11.46;100.00;101950.22;5026005;28;20048;-72
2023/09/26 06:30:51;;;;;;;15.40;11.10;;;;;;;11.54;100.00;101949.78;5027954;28;20485;-72
2023/09/26 06:33:16;;;;;;;18.55;11.30;;;;;;;11.64;100.00;101952.84;5026677;28;20128;-72
2023/09/26 06:35:42;;;;;;;15.88;10.82;;;;;;;11.74;100.00;101945.88;5039306;28;20481;-72
2023/09/26 06:38:07;;;;;;;16.27;10.90;;;;;;;11.78;100.00;101947.44;5030371;28;20085;-72
2023/09/26 06:40:33;;;;;;;17.63;12.18;;;;;;;11.84;100.00;101952.56;5026826;28;20052;-72
2023/09/26 06:43:00;;;;;;;16.63;11.13;;;;;;;11.91;100.00;101958.53;5026516;28;20017;-72
2023/09/26 06:45:29;;;;;;;18.15;11.13;;;;;;;11.96;100.00;101957.28;5026836;28;20041;-72
2023/09/26 06:47:55;;;;;;;13.85;10.27;;;;;;;12.05;100.00;101955.84;5026262;28;20033;-72
2023/09/26 06:50:24;;;;;;;16.00;10.63;;;;;;;12.11;100.00;101955.47;5026483;28;20060;-72
2023/09/26 06:52:49;;;;;;;16.65;10.93;;;;;;;12.19;100.00;101963.19;5029196;28;20019;-72
2023/09/26 06:55:14;;;;;;;13.20;10.98;;;;;;;12.25;100.00;101960.97;5027142;28;20045;-72
2023/09/26 06:57:40;;;;;;;17.27;10.38;;;;;;;12.32;100.00;101966.94;5027447;28;20029;-72
2023/09/26 07:00:16;;;;;;;15.77;10.10;;;;;;;12.41;100.00;101979.13;5026988;28;20516;-72
2023/09/26 07:02:43;;;;;;;14.77;10.48;;;;;;;12.48;100.00;101973.19;5025971;28;20091;-72
2023/09/26 07:05:08;;;;;;;12.32;9.88;;;;;;;12.56;100.00;101967.25;5025992;28;20493;-72
2023/09/26 07:07:35;;;;;;;19.15;11.07;;;;;;;12.63;100.00;101959.53;5027402;28;20054;-72
2023/09/26 07:10:04;;;;;;;15.30;10.27;;;;;;;12.69;100.00;101973.69;5026086;28;20124;-72
2023/09/26 07:12:30;;;;;;;16.48;10.45;;;;;;;12.77;100.00;101970.47;5028070;28;20049;-72
2023/09/26 07:14:56;;;;;;;14.05;10.05;;;;;;;12.85;100.00;101973.59;5026521;28;20028;-72
2023/09/26 07:17:22;;;;;;;13.00;11.10;;;;;;;12.96;100.00;101975.63;5027519;28;20068;-72
2023/09/26 07:19:48;;;;;;;15.52;10.65;;;;;;;13.05;100.00;101971.41;5028581;28;20025;-72
2023/09/26 07:22:14;;;;;;;15.20;10.65;;;;;;;13.14;100.00;101968.09;5037923;28;20063;-72
2023/09/26 07:24:40;;;;;;;18.80;10.35;;;;;;;13.21;100.00;101959.41;5026543;28;20057;-72
2023/09/26 07:27:06;;;;;;;15.25;10.95;;;;;;;13.34;100.00;101955.91;5025745;28;20088;-72
2023/09/26 07:29:32;;;;;;;14.07;10.55;;;;;;;13.42;100.00;101958.97;5027449;28;20045;-72
2023/09/26 07:31:57;;;;;;;15.02;11.27;;;;;;;13.55;100.00;101968.13;5027130;28;20482;-72
2023/09/26 07:34:23;;;;;;;16.15;10.90;;;;;;;13.63;100.00;101970.34;5025600;28;20465;-72
2023/09/26 07:36:48;;;;;;;14.60;10.23;;;;;;;13.72;100.00;101969.75;5027155;28;20022;-72
2023/09/26 07:39:16;;;;;;;13.00;10.15;;;;;;;13.78;100.00;101969.31;5026698;28;20045;-72
2023/09/26 07:41:41;;;;;;;15.32;11.20;;;;;;;13.86;100.00;101966.94;5045684;28;20044;-72
2023/09/26 07:44:06;;;;;;;15.38;11.07;;;;;;;13.93;100.00;101970.13;5032612;28;20029;-72
2023/09/26 07:46:32;;;;;;;15.57;11.43;;;;;;;14.01;100.00;101965.88;5027453;28;20041;-73
2023/09/26 07:48:57;;;;;;;17.05;11.75;;;;;;;14.07;100.00;101963.69;5027070;28;20033;-72
2023/09/26 07:51:22;;;;;;;22.13;10.63;;;;;;;14.17;100.00;101962.06;5027195;28;20039;-72
2023/09/26 07:53:48;;;;;;;15.20;11.05;;;;;;;14.27;100.00;101966.81;5026426;28;20045;-72
2023/09/26 07:56:13;;;;;;;13.70;10.30;;;;;;;14.36;100.00;101964.38;5025403;28;20444;-72
2023/09/26 07:58:39;;;;;;;15.05;10.70;;;;;;;14.43;100.00;101972.06;5028464;28;20144;-72
2023/09/26 08:01:07;;;;;;;17.02;11.38;;;;;;;14.49;100.00;101966.19;5030550;28;20041;-72
2023/09/26 08:03:33;;;;;;;14.18;10.60;;;;;;;14.57;100.00;101965.66;5029686;28;20114;-73
2023/09/26 08:06:00;;;;;;;14.98;10.73;;;;;;;14.70;100.00;101960.19;5031375;28;20045;-73
2023/09/26 08:08:25;;;;;;;16.23;10.90;;;;;;;14.86;100.00;101959.94;5029999;28;20037;-72
2023/09/26 08:10:51;;;;;;;15.18;10.57;;;;;;;15.03;100.00;101959.59;5030526;28;20045;-72
2023/09/26 08:13:16;;;;;;;14.27;10.43;;;;;;;15.13;100.00;101952.44;5029088;28;20025;-72
2023/09/26 08:15:41;;;;;;;17.05;10.90;;;;;;;15.27;100.00;101948.66;5030560;28;20029;-73
2023/09/26 08:18:07;;;;;;;16.27;10.50;;;;;;;15.38;100.00;101948.72;5029152;28;20041;-72
2023/09/26 08:20:32;;;;;;;15.77;10.63;;;;;;;15.45;100.00;101943.66;5031263;28;20060;-73
2023/09/26 08:22:57;;;;;;;13.95;9.70;;;;;;;15.54;100.00;101948.47;5030008;28;20052;-73
2023/09/26 08:25:23;;;;;;;15.18;10.82;;;;;;;15.69;100.00;101960.16;5029906;28;20040;-73
2023/09/26 08:27:48;;;;;;;19.17;10.77;;;;;;;15.80;99.53;101950.09;5029236;28;20052;-73
2023/09/26 08:30:14;;;;;;;13.93;10.13;;;;;;;15.94;99.79;101942.66;5028635;28;20386;-73
2023/09/26 08:32:40;;;;;;;18.40;10.52;;;;;;;16.03;99.59;101942.84;5030205;28;20512;-73
2023/09/26 08:35:07;;;;;;;15.50;10.00;;;;;;;16.14;99.35;101957.63;5028911;28;20434;-73
2023/09/26 08:37:33;;;;;;;15.23;10.35;;;;;;;16.26;97.81;101952.00;5030745;28;20041;-73
2023/09/26 08:39:59;;;;;;;14.85;10.10;;;;;;;16.36;96.44;101948.53;5030095;28;20711;-73
2023/09/26 08:42:27;;;;;;;14.38;9.07;;;;;;;16.48;97.71;101947.56;5012426;28;20052;-73
2023/09/26 08:44:54;;;;;;;15.45;8.95;;;;;;;16.69;98.08;101951.31;5029409;28;20080;-73
2023/09/26 08:47:23;;;;;;;12.73;9.25;;;;;;;16.92;95.16;101945.88;5030119;28;20037;-73
2023/09/26 08:49:53;;;;;;;15.80;8.82;;;;;;;17.16;94.75;101948.47;5028643;28;20099;-73
2023/09/26 08:52:23;;;;;;;15.80;9.45;;;;;;;17.37;94.91;101948.59;5029936;28;20170;-73
2023/09/26 08:54:49;;;;;;;15.95;8.50;;;;;;;17.56;94.71;101941.41;5029327;28;20034;-73
2023/09/26 08:57:18;;;;;;;17.15;8.30;;;;;;;17.57;89.31;101939.50;5029546;28;20025;-73
2023/09/26 08:59:46;;;;;;;18.48;8.15;;;;;;;17.74;90.66;101941.75;5027832;28;20127;-73
2023/09/26 09:02:12;;;;;;;11.75;8.93;;;;;;;17.93;92.61;101934.66;5028310;28;20072;-73
2023/09/26 09:04:42;;;;;;;12.10;9.13;;;;;;;18.05;87.17;101936.38;5029637;28;20041;-73
2023/09/26 09:07:08;;;;;;;12.25;7.45;;;;;;;18.16;88.08;101936.31;5028264;28;20041;-73
2023/09/26 09:09:34;;;;;;;14.70;8.43;;;;;;;18.36;88.63;101932.66;5028377;28;20400;-73
2023/09/26 09:11:59;;;;;;;12.32;8.05;;;;;;;18.57;87.53;101932.66;5028646;28;20026;-74
2023/09/26 09:14:32;;;;;;;12.77;8.60;;;;;;;18.73;86.30;101934.06;5027956;28;20477;-73
2023/09/26 09:16:58;;;;;;;12.50;8.30;;;;;;;18.94;85.60;101936.78;5029488;28;20480;-74
2023/09/26 09:19:46;;;;;;;11.10;7.05;;;;;;;19.16;86.85;101939.31;5029169;28;20112;-73
2023/09/26 09:22:17;;;;;;;11.57;6.45;;;;;;;19.34;82.78;101929.34;5037085;28;20128;-73
2023/09/26 09:24:43;;;;;;;10.55;6.05;;;;;;;19.35;80.56;101944.91;5048663;28;20480;-74
2023/09/26 09:27:09;;;;;;;12.13;6.07;;;;;;;19.49;83.27;101942.75;5039101;28;20025;-74
2023/09/26 09:29:35;;;;;;;10.10;5.80;;;;;;;19.51;78.34;101949.88;5044028;28;20097;-73
2023/09/26 09:32:01;;;;;;;13.07;5.53;;;;;;;19.52;76.60;101939.69;5046032;28;20553;-73
2023/09/26 09:34:27;;;;;;;10.63;5.90;;;;;;;19.57;77.67;101938.25;5029189;28;20037;-74
2023/09/26 09:36:58;;;;;;;8.52;5.13;;;;;;;19.68;79.93;101937.31;5027856;28;20025;-73
2023/09/26 09:39:24;;;;;;;6.80;4.60;;;;;;;19.84;77.98;101928.44;5028421;28;20115;-73
2023/09/26 09:41:57;;;;;;;8.88;5.15;;;;;;;19.96;77.95;101926.38;5029204;28;20104;-74
2023/09/26 09:44:23;;;;;;;6.43;4.55;;;;;;;20.02;76.30;101918.41;5026883;28;20076;-73
2023/09/26 09:47:01;;;;;;;10.25;5.07;;;;;;;20.20;78.41;101921.28;5033928;28;20067;-73
2023/09/26 09:49:31;;;;;;;7.18;5.13;;;;;;;20.36;73.02;101907.72;5037467;28;20054;-74
2023/09/26 09:52:02;;;;;;;13.88;6.10;;;;;;;20.49;69.90;101899.16;5028730;28;20124;-74
2023/09/26 09:54:33;;;;;;;10.82;5.53;;;;;;;20.66;74.63;101894.75;5028274;28;20041;-73
2023/09/26 09:57:06;;;;;;;8.90;5.35;;;;;;;20.81;74.10;101903.41;5011123;28;20493;-73
2023/09/26 09:59:34;;;;;;;11.98;5.22;;;;;;;20.94;72.22;101906.69;5047478;28;20543;-73
2023/09/26 10:02:00;;;;;;;10.48;5.28;;;;;;;21.00;71.96;101900.53;5037307;28;20439;-73
2023/09/26 10:04:28;;;;;;;11.82;5.88;;;;;;;21.13;73.12;101900.19;5028512;28;20037;-73
2023/09/26 10:06:53;;;;;;;12.98;5.55;;;;;;;21.25;71.42;101904.47;5033312;28;20870;-73
2023/09/26 10:09:20;;;;;;;8.80;5.50;;;;;;;21.37;73.52;101902.41;5047854;28;20025;-72
2023/09/26 10:11:46;;;;;;;7.72;5.47;;;;;;;21.32;74.96;101910.31;5048368;28;20045;-73
2023/09/26 10:14:32;;;;;;;8.65;5.47;;;;;;;21.41;74.50;101914.91;5033414;28;20091;-73
2023/09/26 10:16:59;;;;;;;8.63;5.97;;;;;;;21.46;70.82;101906.13;5028339;28;20041;-73
2023/09/26 10:19:26;;;;;;;8.98;4.60;;;;;;;21.50;69.45;101907.56;5028318;28;20485;-73
2023/09/26 10:21:52;;;;;;;9.10;4.55;;;;;;;21.55;68.57;101914.38;5027175;28;20484;-72
2023/09/26 10:24:18;;;;;;;8.15;4.95;;;;;;;21.54;66.80;101908.97;5026236;28;20084;-73
2023/09/26 10:26:45;;;;;;;9.18;4.63;;;;;;;21.50;69.93;101908.44;5028157;28;20049;-73
2023/09/26 10:29:27;;;;;;;7.10;4.07;;;;;;;21.52;73.60;101905.50;5026229;28;20047;-73
2023/09/26 10:31:55;;;;;;;8.10;4.78;;;;;;;21.56;67.55;101904.16;5026874;28;20048;-73
2023/09/26 10:34:37;;;;;;;9.30;5.18;;;;;;;21.61;69.44;101902.66;5027747;28;20041;-73
2023/09/26 10:37:06;;;;;;;7.05;4.45;;;;;;;21.65;69.42;101897.69;5034620;28;20098;-73
2023/09/26 10:39:37;;;;;;;5.80;4.03;;;;;;;21.76;70.08;101900.19;5046733;28;20037;-74
2023/09/26 10:42:11;;;;;;;6.30;4.20;;;;;;;21.89;69.76;101897.03;5046976;28;20044;-73
2023/09/26 10:44:37;;;;;;;8.32;3.92;;;;;;;22.00;69.40;101887.59;5031137;28;20037;-73
2023/09/26 10:47:04;;;;;;;9.95;3.95;;;;;;;21.97;69.67;101882.41;5028410;28;20040;-73
2023/09/26 10:49:31;;;;;;;8.02;4.35;;;;;;;21.99;69.58;101883.97;5038323;28;20404;-73
2023/09/26 10:51:59;;;;;;;7.97;3.63;;;;;;;22.11;71.66;101891.03;5041639;28;20504;-73
2023/09/26 10:54:25;;;;;;;6.97;3.80;;;;;;;22.11;68.07;101899.34;5025887;28;20168;-73
2023/09/26 10:56:52;;;;;;;8.07;3.85;;;;;;;22.12;66.91;101903.84;5027487;28;20435;-73
2023/09/26 10:59:18;;;;;;;6.53;3.72;;;;;;;22.07;67.14;101889.56;5039417;28;20548;-73
2023/09/26 11:01:45;;;;;;;6.45;3.85;;;;;;;22.03;64.42;101882.63;5036966;28;20037;-73
2023/09/26 11:04:11;;;;;;;4.72;3.42;;;;;;;22.07;64.68;101880.41;5027208;28;20065;-73
2023/09/26 11:06:37;;;;;;;6.53;3.17;;;;;;;22.19;68.20;101889.34;5029767;28;20144;-72
2023/09/26 11:09:03;;;;;;;6.30;3.95;;;;;;;22.29;65.34;101899.31;5047586;28;20033;-72